This is the latest recevied weather packets stored in our database for station/object SV9TNF-2. If no packets are shown the sender has not sent any weather packets the latest 10 day(s).
| Time | Temp. | Humidity | Pressure | Rain* | Wind** | Luminosity | Snow |
|---|---|---|---|---|---|---|---|
| 1777673432 | 15.56° C | 73% | 1022.4 hPa | 0 mm | 5.81 m/s, 82° | - | - |
| 1777673133 | 15.56° C | 72% | 1022.4 hPa | 0 mm | 6.26 m/s, 70° | - | - |
| 1777672832 | 15.56° C | 73% | 1022.4 hPa | 0 mm | 5.81 m/s, 73° | - | - |
| 1777672532 | 15.56° C | 75% | 1022.4 hPa | 0 mm | 8.05 m/s, 84° | - | - |
| 1777672232 | 15.56° C | 74% | 1022.4 hPa | 0 mm | 8.05 m/s, 90° | - | - |
| 1777671932 | 15.56° C | 76% | 1022.4 hPa | 0 mm | 8.05 m/s, 73° | - | - |
| 1777671632 | 16.11° C | 75% | 1022.4 hPa | 0 mm | 6.71 m/s, 92° | - | - |
| 1777671332 | 15.56° C | 75% | 1022.7 hPa | 0 mm | 8.05 m/s, 82° | - | - |
| 1777671032 | 15.56° C | 75% | 1022.7 hPa | 0 mm | 8.05 m/s, 96° | - | - |
| 1777670731 | 15.56° C | 75% | 1022.7 hPa | 0 mm | 5.81 m/s, 85° | - | - |
| 1777670432 | 15.56° C | 75% | 1022.4 hPa | 0 mm | 12.07 m/s, 54° | - | - |
| 1777670131 | 15.56° C | 75% | 1022.4 hPa | 0 mm | 5.81 m/s, 141° | - | - |
| 1777669831 | 15.56° C | 76% | 1022.4 hPa | 0 mm | 6.26 m/s, 75° | - | - |
| 1777669531 | 15.56° C | 75% | 1022.4 hPa | 0 mm | 10.28 m/s, 89° | - | - |
| 1777669234 | 15.56° C | 75% | 1022.4 hPa | 0 mm | 8.05 m/s, 75° | - | - |
| 1777668931 | 15.56° C | 75% | 1022.4 hPa | 0 mm | 8.05 m/s, 40° | - | - |
| 1777668631 | 16.11° C | 73% | 1022.4 hPa | 0 mm | 6.26 m/s, 82° | - | - |
| 1777668331 | 16.11° C | 73% | 1022.4 hPa | 0 mm | 7.6 m/s, 90° | - | - |
| 1777668031 | 16.11° C | 72% | 1022.4 hPa | 0 mm | 8.05 m/s, 91° | - | - |
| 1777667731 | 16.11° C | 74% | 1022.4 hPa | 0 mm | 9.39 m/s, 69° | - | - |
| 1777667430 | 16.11° C | 74% | 1022.4 hPa | 0 mm | 8.94 m/s, 93° | - | - |
| 1777667130 | 16.11° C | 74% | 1022.4 hPa | 0 mm | 10.28 m/s, 62° | - | - |
| 1777666830 | 16.11° C | 74% | 1022.4 hPa | 0 mm | 8.05 m/s, 72° | - | - |
| 1777666530 | 16.11° C | 72% | 1022.4 hPa | 0 mm | 6.71 m/s, 90° | - | - |
| 1777666230 | 16.11° C | 73% | 1022.7 hPa | 0 mm | 7.15 m/s, 46° | - | - |
* Rain latest hour (hover to see other rain measurements)
** Current wind speed in m/s (hover to see current wind gust speed)